Time;durP1;ratioP1;P1;durP2;ratioP2;P2;SDS_P1;SDS_P2;PMS_P1;PMS_P2;Temp;Humidity;BMP_temperature;BMP_pressure;BME280_temperature;BME280_humidity;BME280_pressure;Samples;Min_cycle;Max_cycle;Signal;HPM_P1;HPM_P2
2023/09/17 00:00:57;;;;;;;7.70;6.88;;;15.50;99.90;;;;;;5012533;28;20041;-83
2023/09/17 00:03:23;;;;;;;7.18;6.47;;;15.50;99.90;;;;;;5010810;28;20025;-81
2023/09/17 00:05:49;;;;;;;8.35;7.55;;;15.40;99.90;;;;;;5002497;28;20025;-81
2023/09/17 00:08:14;;;;;;;9.52;7.13;;;15.40;99.90;;;;;;4999237;28;20478;-83
2023/09/17 00:10:43;;;;;;;7.90;7.03;;;15.40;99.90;;;;;;5009842;28;20080;-80
2023/09/17 00:13:09;;;;;;;7.55;6.85;;;15.30;99.90;;;;;;5005290;28;20483;-82
2023/09/17 00:15:37;;;;;;;8.32;7.50;;;15.30;99.90;;;;;;5008085;28;20420;-80
2023/09/17 00:18:02;;;;;;;8.38;7.50;;;15.30;99.90;;;;;;5000372;28;20026;-80
2023/09/17 00:20:28;;;;;;;8.55;7.65;;;15.20;99.90;;;;;;5011403;28;20077;-80
2023/09/17 00:22:53;;;;;;;8.27;7.18;;;15.20;99.90;;;;;;4996543;28;20033;-80
2023/09/17 00:25:19;;;;;;;8.30;7.50;;;15.20;99.90;;;;;;5001780;28;20022;-81
2023/09/17 00:27:44;;;;;;;8.15;7.35;;;15.10;99.90;;;;;;5009013;28;20552;-82
2023/09/17 00:30:11;;;;;;;7.57;6.88;;;15.10;99.90;;;;;;5005428;28;20564;-80
2023/09/17 00:32:36;;;;;;;8.85;7.43;;;15.10;99.90;;;;;;4998316;28;20011;-81
2023/09/17 00:35:03;;;;;;;8.00;7.20;;;15.10;99.90;;;;;;5010319;28;20473;-81
2023/09/17 00:37:29;;;;;;;7.40;6.68;;;15.00;99.90;;;;;;4996601;28;20018;-82
2023/09/17 00:39:54;;;;;;;9.70;7.70;;;15.00;99.90;;;;;;4998401;28;20216;-81
2023/09/17 00:42:20;;;;;;;7.38;6.68;;;15.00;99.90;;;;;;4996265;28;20429;-81
2023/09/17 00:44:45;;;;;;;8.25;7.45;;;14.90;99.90;;;;;;5003705;28;20512;-81
2023/09/17 00:47:12;;;;;;;9.93;7.43;;;14.90;99.90;;;;;;4994979;28;20676;-81
2023/09/17 00:49:38;;;;;;;8.85;7.95;;;14.90;99.90;;;;;;5000872;28;20029;-80
2023/09/17 00:52:19;;;;;;;8.88;8.05;;;14.90;99.90;;;;;;4995179;28;20106;-81
2023/09/17 00:54:47;;;;;;;7.72;7.03;;;14.80;99.90;;;;;;5000129;28;20046;-80
2023/09/17 00:57:15;;;;;;;9.23;7.40;;;14.80;99.90;;;;;;5002379;28;20014;-81
2023/09/17 00:59:41;;;;;;;7.60;6.90;;;14.80;99.90;;;;;;4999954;28;20398;-80
2023/09/17 01:02:07;;;;;;;9.52;7.13;;;14.70;99.90;;;;;;5003133;28;20022;-80
2023/09/17 01:04:33;;;;;;;8.10;7.22;;;14.70;99.90;;;;;;5006473;28;20397;-83
2023/09/17 01:06:59;;;;;;;7.97;6.85;;;14.70;99.90;;;;;;5002209;28;20030;-82
2023/09/17 01:09:25;;;;;;;7.53;6.82;;;14.70;99.90;;;;;;5013145;28;20015;-83
2023/09/17 01:11:51;;;;;;;7.55;6.90;;;14.70;99.90;;;;;;5003696;28;20028;-83
2023/09/17 01:14:18;;;;;;;8.77;7.95;;;14.70;99.90;;;;;;5011498;28;20025;-82
2023/09/17 01:16:45;;;;;;;8.65;7.82;;;14.70;99.90;;;;;;5004832;28;20026;-82
2023/09/17 01:19:26;;;;;;;8.30;7.45;;;14.60;99.90;;;;;;5013035;28;20046;-83
2023/09/17 01:22:12;;;;;;;7.88;7.18;;;14.60;99.90;;;;;;5010712;28;20038;-83
2023/09/17 01:25:06;;;;;;;8.00;7.15;;;14.60;99.90;;;;;;5010677;28;20037;-81
2023/09/17 01:27:41;;;;;;;7.32;6.63;;;14.60;99.90;;;;;;5005149;28;20411;-80
2023/09/17 01:30:15;;;;;;;8.07;7.28;;;14.50;99.90;;;;;;4997034;28;20034;-81
2023/09/17 01:32:42;;;;;;;10.48;8.02;;;14.50;99.90;;;;;;5003063;28;20041;-84
2023/09/17 01:35:11;;;;;;;8.20;7.32;;;14.50;99.90;;;;;;5006011;28;20116;-81
2023/09/17 01:37:39;;;;;;;7.43;6.63;;;14.40;99.90;;;;;;5008886;28;20049;-81
2023/09/17 01:40:11;;;;;;;8.02;7.22;;;14.40;99.90;;;;;;5003272;28;20034;-81
2023/09/17 01:42:40;;;;;;;8.55;7.57;;;14.40;99.90;;;;;;5001974;28;20022;-83
2023/09/17 01:45:09;;;;;;;7.95;7.15;;;14.40;99.90;;;;;;5009050;28;20028;-80
2023/09/17 01:47:35;;;;;;;8.18;7.38;;;14.40;99.90;;;;;;5010916;28;20049;-81
2023/09/17 01:50:04;;;;;;;7.95;7.15;;;14.30;99.90;;;;;;5006574;28;20688;-84
2023/09/17 01:52:32;;;;;;;7.85;7.10;;;14.30;99.90;;;;;;5009755;28;20049;-81
2023/09/17 01:55:00;;;;;;;8.82;7.93;;;14.30;99.90;;;;;;5016592;28;20055;-82
2023/09/17 01:57:25;;;;;;;8.13;7.32;;;14.30;99.90;;;;;;5012693;28;20018;-84
2023/09/17 01:59:51;;;;;;;7.53;6.82;;;14.30;99.90;;;;;;5018570;28;20059;-82
2023/09/17 02:02:16;;;;;;;8.45;7.65;;;14.20;99.90;;;;;;5002950;28;20492;-83
2023/09/17 02:04:42;;;;;;;8.40;7.60;;;14.20;99.90;;;;;;5009347;28;20828;-83
2023/09/17 02:07:09;;;;;;;8.85;6.97;;;14.20;99.90;;;;;;5000752;28;20014;-81
2023/09/17 02:09:34;;;;;;;8.32;7.53;;;14.20;99.90;;;;;;5007431;28;20029;-81
2023/09/17 02:12:00;;;;;;;9.27;8.20;;;14.20;99.90;;;;;;5012064;28;20026;-83
2023/09/17 02:14:25;;;;;;;7.95;7.20;;;14.20;99.90;;;;;;5011659;28;20015;-83
2023/09/17 02:16:51;;;;;;;8.70;7.82;;;14.20;99.90;;;;;;5007436;28;20176;-82
2023/09/17 02:19:17;;;;;;;7.28;6.68;;;14.20;99.90;;;;;;5009994;28;20101;-82
2023/09/17 02:21:42;;;;;;;8.30;7.45;;;14.10;99.90;;;;;;5002136;28;20053;-81
2023/09/17 02:24:08;;;;;;;9.02;8.23;;;14.10;99.90;;;;;;4999430;28;20030;-81
2023/09/17 02:26:34;;;;;;;8.88;7.82;;;14.10;99.90;;;;;;5003641;28;20037;-80
2023/09/17 02:28:59;;;;;;;7.57;6.88;;;14.10;99.90;;;;;;5000192;28;20028;-82
2023/09/17 02:31:25;;;;;;;8.55;7.75;;;14.10;99.90;;;;;;5012074;28;20064;-81
2023/09/17 02:33:50;;;;;;;7.78;7.07;;;14.20;99.90;;;;;;5003050;28;20024;-82
2023/09/17 02:36:16;;;;;;;8.18;7.38;;;14.20;99.90;;;;;;5002605;28;20027;-81
2023/09/17 02:38:41;;;;;;;8.63;7.78;;;14.10;99.90;;;;;;5004379;28;20053;-80
2023/09/17 02:41:07;;;;;;;9.10;8.20;;;14.20;99.90;;;;;;5005518;28;20038;-81
2023/09/17 02:43:36;;;;;;;7.90;7.10;;;14.10;99.90;;;;;;5006491;28;20844;-83
2023/09/17 02:46:03;;;;;;;9.10;8.20;;;14.20;99.90;;;;;;5001258;28;20041;-82
2023/09/17 02:48:29;;;;;;;9.15;8.20;;;14.10;99.90;;;;;;5003540;28;20045;-80
2023/09/17 02:50:55;;;;;;;9.40;8.48;;;14.10;99.90;;;;;;5009890;28;20800;-80
2023/09/17 02:53:20;;;;;;;8.05;7.32;;;14.10;99.90;;;;;;5006623;28;20041;-82
2023/09/17 02:55:46;;;;;;;8.32;7.53;;;14.10;99.90;;;;;;5009221;28;20053;-80
2023/09/17 02:58:12;;;;;;;9.75;8.32;;;14.10;99.90;;;;;;5005208;28;20055;-81
2023/09/17 03:00:38;;;;;;;10.30;8.80;;;14.10;99.90;;;;;;5014039;28;20033;-81
2023/09/17 03:03:04;;;;;;;9.40;8.50;;;14.10;99.90;;;;;;5006916;28;20025;-82
2023/09/17 03:05:29;;;;;;;8.85;7.95;;;14.10;99.90;;;;;;5003139;28;20061;-81
2023/09/17 03:07:56;;;;;;;9.52;8.50;;;14.10;99.90;;;;;;5009435;28;20053;-81
2023/09/17 03:10:22;;;;;;;9.57;8.25;;;14.00;99.90;;;;;;5003501;28;20536;-82
2023/09/17 03:12:48;;;;;;;9.38;8.40;;;14.00;99.90;;;;;;5006847;28;20030;-80
2023/09/17 03:15:14;;;;;;;9.43;8.52;;;14.00;99.90;;;;;;5007898;28;20034;-80
2023/09/17 03:17:40;;;;;;;9.02;8.13;;;14.00;99.90;;;;;;5007113;28;20109;-81
2023/09/17 03:20:13;;;;;;;9.60;8.70;;;14.00;99.90;;;;;;5005960;28;20110;-80
2023/09/17 03:22:40;;;;;;;10.25;9.23;;;14.00;99.90;;;;;;5011431;28;20025;-81
2023/09/17 03:25:06;;;;;;;9.90;8.90;;;14.00;99.90;;;;;;5000360;28;20498;-80
2023/09/17 03:27:34;;;;;;;9.43;8.52;;;13.90;99.90;;;;;;5010923;28;20054;-80
2023/09/17 03:30:03;;;;;;;8.70;7.90;;;14.00;99.90;;;;;;5003227;28;20027;-80
2023/09/17 03:32:29;;;;;;;9.60;8.70;;;14.00;99.90;;;;;;5003648;28;20024;-82
2023/09/17 03:34:55;;;;;;;9.27;8.35;;;14.00;99.90;;;;;;5015935;28;20018;-82
2023/09/17 03:37:21;;;;;;;10.60;8.50;;;14.00;99.90;;;;;;5005698;28;20105;-80
2023/09/17 03:40:06;;;;;;;8.70;7.85;;;13.90;99.90;;;;;;5007795;28;20515;-80
2023/09/17 03:42:31;;;;;;;9.80;8.85;;;13.90;99.90;;;;;;5007666;28;20026;-81
2023/09/17 03:44:57;;;;;;;9.35;8.35;;;13.90;99.90;;;;;;5000124;28;20437;-81
2023/09/17 03:47:22;;;;;;;9.20;8.30;;;13.90;99.90;;;;;;4997679;28;20029;-81
2023/09/17 03:49:48;;;;;;;9.55;8.38;;;13.90;99.90;;;;;;5002807;28;20030;-81
2023/09/17 03:52:13;;;;;;;8.40;7.60;;;13.90;99.90;;;;;;5016078;28;20037;-83
2023/09/17 03:54:39;;;;;;;8.20;7.50;;;13.90;99.90;;;;;;5010974;28;20025;-83
2023/09/17 03:57:04;;;;;;;9.90;7.50;;;13.80;99.90;;;;;;5011395;28;20033;-86
2023/09/17 03:59:30;;;;;;;8.38;7.32;;;13.80;99.90;;;;;;5006170;28;20022;-83
2023/09/17 04:01:56;;;;;;;8.88;8.07;;;13.80;99.90;;;;;;5007290;28;20553;-80
2023/09/17 04:04:21;;;;;;;8.20;7.40;;;13.80;99.90;;;;;;5001101;28;20029;-80
2023/09/17 04:06:47;;;;;;;9.10;8.30;;;13.80;99.90;;;;;;5002582;28;20022;-81
2023/09/17 04:09:13;;;;;;;10.18;9.18;;;13.70;99.90;;;;;;5006180;28;20479;-81
2023/09/17 04:11:39;;;;;;;9.02;8.15;;;13.70;99.90;;;;;;5010833;28;20044;-81
2023/09/17 04:14:06;;;;;;;7.75;6.95;;;13.70;99.90;;;;;;5012031;28;20465;-81
2023/09/17 04:16:32;;;;;;;8.43;7.57;;;13.70;99.90;;;;;;5010210;28;20044;-81
2023/09/17 04:18:57;;;;;;;8.52;7.65;;;13.70;99.90;;;;;;5010440;28;20034;-81
2023/09/17 04:21:23;;;;;;;8.68;7.45;;;13.60;99.90;;;;;;5003258;28;20026;-82
2023/09/17 04:23:48;;;;;;;8.68;7.78;;;13.60;99.90;;;;;;5008485;28;20111;-81
2023/09/17 04:26:15;;;;;;;10.55;8.70;;;13.60;99.90;;;;;;5000357;28;20024;-81
2023/09/17 04:28:41;;;;;;;8.68;7.78;;;13.60;99.90;;;;;;4997953;28;20064;-82
2023/09/17 04:31:06;;;;;;;9.40;8.50;;;13.50;99.90;;;;;;5008652;28;20041;-82
2023/09/17 04:33:32;;;;;;;8.90;8.00;;;13.60;99.90;;;;;;5000790;28;20041;-81
2023/09/17 04:35:58;;;;;;;9.52;8.63;;;13.50;99.90;;;;;;5004899;28;20370;-83
2023/09/17 04:38:24;;;;;;;8.95;8.07;;;13.50;99.90;;;;;;5007695;28;20034;-83
2023/09/17 04:40:50;;;;;;;9.18;8.15;;;13.50;99.90;;;;;;5000058;28;20068;-82
2023/09/17 04:43:16;;;;;;;9.35;8.45;;;13.50;99.90;;;;;;5008006;28;20083;-82
2023/09/17 04:45:42;;;;;;;9.73;8.73;;;13.50;99.90;;;;;;5008082;28;20022;-82
2023/09/17 04:48:09;;;;;;;9.18;8.27;;;13.50;99.90;;;;;;4998747;28;20489;-81
2023/09/17 04:50:35;;;;;;;9.52;8.55;;;13.40;99.90;;;;;;5000137;28;20033;-83
2023/09/17 04:53:02;;;;;;;8.45;7.65;;;13.40;99.90;;;;;;5001986;28;20022;-81
2023/09/17 04:55:27;;;;;;;9.82;8.73;;;13.40;99.90;;;;;;5000061;28;20108;-81
2023/09/17 04:57:53;;;;;;;8.77;7.88;;;13.40;99.90;;;;;;5006425;28;20054;-82
2023/09/17 05:00:20;;;;;;;9.27;8.38;;;13.30;99.90;;;;;;5004719;28;20037;-81
2023/09/17 05:02:46;;;;;;;8.23;7.43;;;13.30;99.90;;;;;;5011026;28;20057;-84
2023/09/17 05:05:12;;;;;;;9.10;8.20;;;13.30;99.90;;;;;;5001223;28;20135;-83
2023/09/17 05:07:39;;;;;;;8.13;7.40;;;13.30;99.90;;;;;;5009339;28;20014;-81
2023/09/17 05:10:07;;;;;;;8.35;7.22;;;13.30;99.90;;;;;;5013433;28;20100;-81
2023/09/17 05:12:33;;;;;;;7.57;6.82;;;13.30;99.90;;;;;;4997460;28;20030;-82
2023/09/17 05:14:58;;;;;;;10.48;7.22;;;13.30;99.90;;;;;;5000554;28;20018;-82
2023/09/17 05:17:24;;;;;;;11.63;8.02;;;13.30;99.90;;;;;;5013104;28;20068;-82
2023/09/17 05:19:49;;;;;;;8.18;7.38;;;13.30;99.90;;;;;;5009446;28;20030;-81
2023/09/17 05:22:15;;;;;;;8.75;7.60;;;13.40;99.90;;;;;;4998562;28;20035;-81
2023/09/17 05:24:40;;;;;;;8.05;7.13;;;13.40;99.90;;;;;;5009013;28;20026;-82
2023/09/17 05:27:06;;;;;;;8.85;8.05;;;13.40;99.90;;;;;;5003785;28;20109;-83
2023/09/17 05:29:31;;;;;;;8.80;7.75;;;13.40;99.90;;;;;;5007637;28;20473;-81
2023/09/17 05:31:57;;;;;;;7.68;6.93;;;13.40;99.90;;;;;;5023746;28;20029;-80
2023/09/17 05:34:23;;;;;;;8.20;7.40;;;13.40;99.90;;;;;;5014450;28;20025;-82
2023/09/17 05:36:49;;;;;;;8.07;7.28;;;13.40;99.90;;;;;;5010247;28;20077;-81
2023/09/17 05:39:14;;;;;;;7.82;6.93;;;13.40;99.90;;;;;;5007672;28;20017;-81
2023/09/17 05:41:40;;;;;;;9.27;8.40;;;13.40;99.90;;;;;;5000738;28;20022;-81
2023/09/17 05:44:05;;;;;;;8.52;7.72;;;13.40;99.90;;;;;;5001669;28;20026;-81
2023/09/17 05:46:31;;;;;;;8.05;7.35;;;13.40;99.90;;;;;;4998294;28;20037;-81
2023/09/17 05:48:57;;;;;;;7.85;7.15;;;13.40;99.90;;;;;;5010729;28;20041;-82
2023/09/17 05:51:23;;;;;;;7.60;6.90;;;13.30;99.90;;;;;;5012789;28;20868;-81
2023/09/17 05:53:48;;;;;;;9.60;8.32;;;13.30;99.90;;;;;;5005805;28;20404;-83
2023/09/17 05:56:14;;;;;;;8.07;7.22;;;13.40;99.90;;;;;;5008856;28;20030;-82
2023/09/17 05:58:40;;;;;;;7.95;7.15;;;13.30;99.90;;;;;;5011989;28;20076;-82
2023/09/17 06:01:05;;;;;;;7.88;7.18;;;13.40;99.90;;;;;;5017375;28;20359;-81
2023/09/17 06:03:31;;;;;;;8.13;7.38;;;13.40;99.90;;;;;;5012492;28;20108;-81
2023/09/17 06:05:56;;;;;;;10.57;7.70;;;13.40;99.90;;;;;;5002549;28;20108;-82
2023/09/17 06:08:22;;;;;;;8.32;7.53;;;13.50;99.90;;;;;;5010374;28;20026;-82
2023/09/17 06:10:48;;;;;;;7.57;6.82;;;13.50;99.90;;;;;;5016252;28;20015;-81
2023/09/17 06:13:14;;;;;;;8.00;7.20;;;13.50;99.90;;;;;;5024140;28;20044;-82
2023/09/17 06:15:39;;;;;;;8.77;7.97;;;13.60;99.90;;;;;;5001337;28;20034;-81
2023/09/17 06:18:05;;;;;;;9.35;8.40;;;13.60;99.90;;;;;;5007315;28;20022;-80
2023/09/17 06:20:31;;;;;;;8.52;7.68;;;13.70;99.90;;;;;;5012166;28;20110;-81
2023/09/17 06:22:56;;;;;;;10.25;8.65;;;13.70;99.90;;;;;;4995774;28;20042;-81
2023/09/17 06:25:23;;;;;;;9.80;8.18;;;13.80;99.90;;;;;;5012429;28;20026;-81
2023/09/17 06:27:49;;;;;;;8.60;7.70;;;13.90;99.90;;;;;;5006163;28;20414;-82
2023/09/17 06:30:14;;;;;;;8.90;7.88;;;13.90;99.90;;;;;;5007064;28;20021;-81
2023/09/17 06:32:40;;;;;;;8.27;7.38;;;14.00;99.90;;;;;;5011477;28;20033;-81
2023/09/17 06:35:06;;;;;;;10.25;9.20;;;14.00;99.90;;;;;;5017608;28;20037;-81
2023/09/17 06:37:32;;;;;;;11.43;9.50;;;14.10;99.90;;;;;;5004318;28;20106;-82
2023/09/17 06:39:57;;;;;;;9.10;8.27;;;14.10;99.90;;;;;;5004820;28;20522;-84
2023/09/17 06:42:23;;;;;;;9.23;8.23;;;14.20;99.90;;;;;;5010015;28;20014;-83
2023/09/17 06:44:48;;;;;;;10.30;8.90;;;14.20;99.90;;;;;;4995204;28;20029;-81
2023/09/17 06:47:15;;;;;;;9.00;8.10;;;14.20;99.90;;;;;;5006475;28;20026;-82
2023/09/17 06:49:41;;;;;;;9.45;8.55;;;14.30;99.90;;;;;;4994081;28;20025;-81
2023/09/17 06:52:07;;;;;;;8.93;8.07;;;14.40;99.90;;;;;;5007012;28;20026;-81
2023/09/17 06:54:33;;;;;;;8.65;7.85;;;14.40;99.90;;;;;;5011672;28;20018;-82
2023/09/17 06:56:58;;;;;;;9.27;8.38;;;14.50;99.90;;;;;;5007041;28;20033;-83
2023/09/17 06:59:24;;;;;;;8.65;7.85;;;14.50;99.90;;;;;;5012422;28;20030;-82
2023/09/17 07:01:49;;;;;;;8.13;7.32;;;14.60;99.90;;;;;;5012630;28;20034;-82
2023/09/17 07:04:18;;;;;;;8.02;7.30;;;14.70;99.90;;;;;;5004246;28;20018;-81
2023/09/17 07:06:43;;;;;;;8.23;7.40;;;14.70;99.90;;;;;;4995140;28;20092;-81
2023/09/17 07:09:09;;;;;;;8.38;7.57;;;14.80;99.90;;;;;;5005607;28;20416;-82
2023/09/17 07:11:34;;;;;;;7.93;7.13;;;14.80;99.90;;;;;;5010350;28;20034;-81
2023/09/17 07:14:05;;;;;;;7.93;7.22;;;14.90;99.90;;;;;;5007590;28;20073;-81
2023/09/17 07:16:31;;;;;;;8.20;7.30;;;15.00;99.90;;;;;;5010202;28;20018;-86
2023/09/17 07:18:56;;;;;;;7.57;6.80;;;15.00;99.90;;;;;;5006941;28;20117;-82
2023/09/17 07:21:22;;;;;;;8.68;7.78;;;15.10;99.90;;;;;;5005909;28;20033;-85
2023/09/17 07:23:50;;;;;;;10.15;8.20;;;15.20;99.90;;;;;;5011189;28;20144;-81
2023/09/17 07:26:16;;;;;;;8.63;7.78;;;15.30;99.90;;;;;;4994608;28;20026;-81
2023/09/17 07:28:43;;;;;;;10.52;8.40;;;15.30;99.90;;;;;;5003378;28;20029;-84
2023/09/17 07:31:10;;;;;;;8.40;7.53;;;15.40;99.90;;;;;;5006852;28;20041;-81
2023/09/17 07:33:36;;;;;;;8.65;7.32;;;15.40;99.90;;;;;;5011147;28;20027;-85
2023/09/17 07:36:02;;;;;;;8.40;7.38;;;15.50;99.90;;;;;;5018630;28;20598;-82
2023/09/17 07:38:28;;;;;;;8.13;7.32;;;15.60;99.90;;;;;;5018054;28;20388;-83
2023/09/17 07:40:54;;;;;;;8.48;7.68;;;15.70;99.90;;;;;;5008350;28;20034;-81
2023/09/17 07:43:20;;;;;;;7.90;7.00;;;15.80;99.90;;;;;;5006804;28;20061;-81
2023/09/17 07:45:45;;;;;;;6.93;6.22;;;16.00;99.90;;;;;;5003080;28;20649;-84
2023/09/17 07:48:11;;;;;;;7.90;7.07;;;16.10;99.90;;;;;;5014543;28;20033;-80
2023/09/17 07:50:36;;;;;;;7.95;7.13;;;16.20;99.90;;;;;;4997365;28;20568;-84
2023/09/17 07:53:02;;;;;;;7.38;6.65;;;16.30;99.90;;;;;;5013385;28;20019;-82
2023/09/17 07:55:29;;;;;;;7.10;6.40;;;16.40;99.90;;;;;;5016953;28;20060;-83
2023/09/17 07:57:55;;;;;;;9.90;7.28;;;16.50;99.90;;;;;;5014870;28;20136;-81
2023/09/17 08:00:21;;;;;;;7.78;7.07;;;16.60;99.90;;;;;;5003908;28;20045;-82
2023/09/17 08:02:47;;;;;;;7.55;6.53;;;16.70;99.90;;;;;;5002340;28;20038;-83
2023/09/17 08:05:12;;;;;;;7.53;6.60;;;16.80;99.90;;;;;;5000268;28;20025;-83
2023/09/17 08:07:40;;;;;;;6.82;6.13;;;16.90;99.90;;;;;;5003884;28;20022;-82
2023/09/17 08:10:06;;;;;;;7.40;6.15;;;16.90;99.90;;;;;;5001043;28;20101;-83
2023/09/17 08:12:32;;;;;;;7.72;6.40;;;17.10;99.90;;;;;;5006426;28;20041;-81
2023/09/17 08:14:58;;;;;;;7.80;6.60;;;17.30;99.90;;;;;;5005171;28;20091;-82
2023/09/17 08:17:24;;;;;;;7.05;6.35;;;17.40;99.90;;;;;;5005545;28;20022;-82
2023/09/17 08:19:49;;;;;;;10.00;6.30;;;17.50;99.90;;;;;;5004788;28;20026;-81
2023/09/17 08:22:15;;;;;;;7.22;5.88;;;17.60;99.90;;;;;;5031382;28;20283;-80
2023/09/17 08:24:41;;;;;;;7.28;6.57;;;17.70;99.90;;;;;;5015101;28;20025;-81
2023/09/17 08:27:06;;;;;;;6.95;6.22;;;17.80;99.90;;;;;;5014797;28;20022;-80
2023/09/17 08:29:33;;;;;;;7.07;6.28;;;18.00;99.90;;;;;;5005866;28;20033;-83
2023/09/17 08:31:59;;;;;;;6.60;6.00;;;18.10;99.90;;;;;;4995849;28;20693;-84
2023/09/17 08:34:25;;;;;;;6.68;5.60;;;18.10;99.90;;;;;;5018921;28;20071;-80
2023/09/17 08:36:50;;;;;;;7.60;6.90;;;18.20;99.90;;;;;;4993162;28;20101;-80
2023/09/17 08:39:16;;;;;;;7.60;5.63;;;18.30;99.90;;;;;;5011328;28;20085;-81
2023/09/17 08:41:42;;;;;;;5.03;4.53;;;18.40;99.90;;;;;;5007206;28;20029;-81
2023/09/17 08:44:09;;;;;;;6.13;5.53;;;18.50;99.90;;;;;;5002745;28;20022;-81
2023/09/17 08:46:36;;;;;;;6.75;5.80;;;18.60;99.90;;;;;;5010746;28;20033;-84
2023/09/17 08:49:02;;;;;;;6.18;5.55;;;18.80;99.90;;;;;;4997575;28;20018;-80
2023/09/17 08:51:32;;;;;;;5.82;5.32;;;18.90;99.90;;;;;;4999445;28;20026;-81
2023/09/17 08:54:05;;;;;;;6.07;5.50;;;19.00;99.90;;;;;;5007393;28;20116;-81
2023/09/17 08:56:34;;;;;;;6.13;5.47;;;19.10;99.90;;;;;;5004229;28;20018;-81
2023/09/17 08:59:03;;;;;;;6.00;5.43;;;19.20;99.90;;;;;;5001952;28;20501;-82
2023/09/17 09:01:31;;;;;;;5.57;5.07;;;19.40;99.90;;;;;;5009607;28;20501;-81
2023/09/17 09:03:57;;;;;;;5.72;5.13;;;19.50;99.90;;;;;;5003657;28;20041;-82
2023/09/17 09:06:27;;;;;;;6.88;5.18;;;19.60;99.90;;;;;;4998294;28;20113;-81
2023/09/17 09:08:54;;;;;;;6.93;4.70;;;19.70;99.90;;;;;;5010682;28;20597;-82
2023/09/17 09:11:20;;;;;;;5.47;5.00;;;19.70;99.90;;;;;;5006886;28;20022;-83
2023/09/17 09:13:48;;;;;;;5.38;4.50;;;19.70;99.90;;;;;;5007372;28;20018;-84
2023/09/17 09:16:15;;;;;;;5.32;4.82;;;19.80;99.90;;;;;;5001527;28;20029;-85
2023/09/17 09:18:40;;;;;;;5.25;4.82;;;19.80;99.90;;;;;;5014018;28;20124;-83
2023/09/17 09:21:08;;;;;;;5.55;4.90;;;19.90;99.90;;;;;;4993115;28;20109;-81
2023/09/17 09:23:34;;;;;;;5.47;4.85;;;19.90;99.90;;;;;;5004069;28;20034;-84
2023/09/17 09:25:59;;;;;;;5.97;5.00;;;20.00;99.90;;;;;;5014520;28;20068;-82
2023/09/17 09:28:30;;;;;;;5.45;5.00;;;20.00;99.90;;;;;;5016543;28;20061;-81
2023/09/17 09:30:56;;;;;;;6.30;5.70;;;20.10;99.90;;;;;;5004735;28;20362;-81
2023/09/17 09:33:22;;;;;;;6.20;5.60;;;20.00;99.90;;;;;;5000870;28;20552;-81
2023/09/17 09:35:48;;;;;;;5.40;4.90;;;20.10;99.90;;;;;;5009994;28;20121;-83
2023/09/17 09:38:15;;;;;;;5.38;4.88;;;20.10;99.90;;;;;;5003049;28;20026;-81
2023/09/17 09:40:43;;;;;;;5.82;5.00;;;20.20;99.90;;;;;;5015649;28;20502;-82
2023/09/17 09:43:31;;;;;;;5.45;4.95;;;20.20;99.90;;;;;;5017827;28;20112;-81
2023/09/17 09:46:04;;;;;;;5.55;5.03;;;20.20;99.90;;;;;;5012381;28;20037;-81
2023/09/17 09:48:30;;;;;;;5.40;4.90;;;20.20;99.90;;;;;;5009721;28;20398;-82
2023/09/17 09:50:56;;;;;;;5.70;5.10;;;20.30;99.90;;;;;;5000662;28;20018;-82
2023/09/17 09:53:21;;;;;;;5.63;5.22;;;20.30;99.90;;;;;;5006630;28;20045;-81
2023/09/17 09:55:47;;;;;;;4.93;4.53;;;20.40;99.90;;;;;;5014263;28;20120;-82
2023/09/17 09:58:14;;;;;;;5.10;4.60;;;20.50;99.90;;;;;;4999620;28;20073;-81
2023/09/17 10:00:44;;;;;;;6.45;5.43;;;20.60;99.90;;;;;;5015094;28;20351;-84
2023/09/17 10:03:12;;;;;;;4.70;4.22;;;20.70;99.90;;;;;;4995292;28;20037;-83
2023/09/17 10:05:39;;;;;;;5.35;4.72;;;20.70;99.90;;;;;;5011574;28;20104;-81
2023/09/17 10:08:08;;;;;;;4.90;4.50;;;20.70;99.90;;;;;;5006237;28;20014;-83
2023/09/17 10:10:34;;;;;;;4.60;4.15;;;20.80;99.90;;;;;;5003775;28;20025;-81
2023/09/17 10:13:04;;;;;;;5.80;4.63;;;20.80;99.90;;;;;;5009381;28;20026;-80
2023/09/17 10:15:30;;;;;;;5.07;4.60;;;20.90;99.90;;;;;;5005921;28;20026;-81
2023/09/17 10:17:57;;;;;;;4.35;3.95;;;21.00;99.90;;;;;;5003031;28;20026;-81
2023/09/17 10:20:23;;;;;;;5.32;4.38;;;21.00;99.90;;;;;;5007861;28;20391;-81
2023/09/17 10:22:51;;;;;;;4.38;3.97;;;21.10;99.90;;;;;;5004282;28;20022;-79
2023/09/17 10:25:18;;;;;;;4.35;3.95;;;21.10;99.90;;;;;;5009126;28;20057;-81
2023/09/17 10:27:46;;;;;;;4.10;3.80;;;21.20;99.90;;;;;;5007100;28;20022;-82
2023/09/17 10:30:14;;;;;;;4.63;4.22;;;21.20;99.90;;;;;;5010264;28;20129;-82
2023/09/17 10:32:41;;;;;;;6.43;4.60;;;21.20;99.90;;;;;;5002960;28;20037;-82
2023/09/17 10:35:09;;;;;;;4.88;4.32;;;21.20;99.90;;;;;;4990026;28;20060;-81
2023/09/17 10:37:36;;;;;;;4.70;4.30;;;21.20;99.90;;;;;;5012584;28;20121;-81
2023/09/17 10:40:08;;;;;;;4.25;3.80;;;21.20;99.90;;;;;;5005450;28;20481;-81
2023/09/17 10:42:34;;;;;;;5.18;4.50;;;21.30;99.90;;;;;;4995226;28;20022;-81
2023/09/17 10:45:04;;;;;;;5.00;4.50;;;21.30;99.90;;;;;;5018141;28;20106;-82
2023/09/17 10:47:33;;;;;;;5.40;4.28;;;21.40;99.90;;;;;;5002754;28;20032;-82
2023/09/17 10:49:58;;;;;;;4.75;4.25;;;21.40;99.90;;;;;;5010922;28;20473;-84
2023/09/17 10:52:25;;;;;;;5.82;4.38;;;21.50;99.90;;;;;;4998145;28;20018;-81
2023/09/17 10:54:50;;;;;;;4.00;3.67;;;21.60;99.90;;;;;;5005431;28;20044;-82
2023/09/17 10:57:23;;;;;;;3.92;3.58;;;21.70;99.90;;;;;;5012570;28;20485;-82
2023/09/17 10:59:51;;;;;;;5.32;4.30;;;21.80;99.90;;;;;;5002752;28;20117;-83
2023/09/17 11:02:17;;;;;;;4.53;4.13;;;21.90;99.90;;;;;;5002777;28;20261;-81
2023/09/17 11:04:44;;;;;;;4.88;4.38;;;22.00;99.90;;;;;;5005343;28;20029;-83
2023/09/17 11:07:10;;;;;;;4.78;4.38;;;22.10;99.90;;;;;;5002095;28;20026;-80
2023/09/17 11:09:36;;;;;;;6.65;4.45;;;22.20;99.90;;;;;;5005299;28;20018;-80
2023/09/17 11:12:03;;;;;;;5.40;3.97;;;22.20;99.90;;;;;;5007706;28;20030;-81
2023/09/17 11:14:29;;;;;;;4.07;3.78;;;22.30;99.90;;;;;;5007249;28;20440;-80
2023/09/17 11:16:55;;;;;;;3.88;3.58;;;22.40;99.90;;;;;;5005910;28;20506;-80
2023/09/17 11:19:22;;;;;;;4.57;4.18;;;22.40;99.90;;;;;;4999788;28;20088;-81
2023/09/17 11:21:50;;;;;;;4.95;4.43;;;22.60;99.90;;;;;;5010788;28;20038;-81
2023/09/17 11:24:19;;;;;;;3.88;3.55;;;22.60;99.90;;;;;;5007084;28;20501;-80
2023/09/17 11:26:45;;;;;;;4.30;3.90;;;22.70;99.90;;;;;;4995802;28;20638;-82
2023/09/17 11:29:11;;;;;;;3.67;3.38;;;22.70;99.90;;;;;;5005442;28;20022;-81
2023/09/17 11:31:52;;;;;;;4.13;3.72;;;22.70;99.90;;;;;;4999225;28;20604;-84
2023/09/17 11:34:18;;;;;;;4.47;4.07;;;22.80;99.90;;;;;;5010478;28;20113;-81
2023/09/17 11:36:47;;;;;;;4.80;4.18;;;22.80;99.90;;;;;;5007415;28;20045;-81
2023/09/17 11:39:15;;;;;;;4.22;3.83;;;22.90;99.90;;;;;;5002812;28;20029;-81
2023/09/17 11:41:52;;;;;;;4.13;3.80;;;22.90;99.90;;;;;;5003317;28;20034;-80
2023/09/17 11:44:18;;;;;;;3.40;3.10;;;23.00;99.90;;;;;;5016264;28;20075;-81
2023/09/17 11:46:44;;;;;;;4.07;3.47;;;23.10;99.90;;;;;;5004791;28;20030;-81
2023/09/17 11:49:10;;;;;;;3.67;3.13;;;23.10;99.90;;;;;;5002504;28;20049;-81
2023/09/17 11:51:43;;;;;;;3.35;3.05;;;23.20;99.90;;;;;;5009399;28;20129;-81
2023/09/17 11:54:15;;;;;;;3.63;3.33;;;23.30;99.90;;;;;;5008290;28;20026;-80
2023/09/17 11:56:50;;;;;;;3.88;3.17;;;23.30;99.90;;;;;;5008886;28;20029;-81
2023/09/17 11:59:19;;;;;;;3.40;3.10;;;23.40;99.90;;;;;;4997619;28;20027;-82
2023/09/17 12:01:52;;;;;;;3.80;3.50;;;23.40;99.90;;;;;;5009773;28;20116;-81
2023/09/17 12:04:19;;;;;;;3.80;3.50;;;23.50;99.90;;;;;;5006107;28;20026;-81
2023/09/17 12:06:50;;;;;;;3.92;3.63;;;23.50;99.90;;;;;;5003182;28;20038;-81
2023/09/17 12:12:01;;;;;;;3.53;3.22;;;23.60;99.90;;;;;;5007186;28;20021;-82
2023/09/17 12:14:27;;;;;;;8.57;3.13;;;23.70;99.90;;;;;;4998679;28;20110;-80
2023/09/17 12:16:53;;;;;;;3.78;3.42;;;23.70;99.90;;;;;;5000143;28;20026;-81
2023/09/17 12:19:20;;;;;;;4.93;4.05;;;23.80;99.90;;;;;;5000981;28;20018;-83
2023/09/17 12:21:48;;;;;;;4.53;3.40;;;23.70;99.90;;;;;;5011024;28;20069;-81
2023/09/17 12:24:23;;;;;;;3.67;3.28;;;23.70;99.90;;;;;;5007377;28;20075;-81
2023/09/17 12:29:36;;;;;;;3.28;2.97;;;23.60;99.90;;;;;;5002909;28;20101;-83
2023/09/17 12:32:06;;;;;;;3.25;3.05;;;23.60;99.90;;;;;;4998626;28;20102;-82
2023/09/17 12:34:35;;;;;;;3.50;3.20;;;23.60;99.90;;;;;;5003014;28;20041;-80
2023/09/17 12:37:01;;;;;;;4.25;3.83;;;23.50;99.90;;;;;;5007307;28;20232;-85
2023/09/17 12:39:26;;;;;;;3.58;3.20;;;23.50;99.90;;;;;;5001931;28;20114;-81
2023/09/17 12:41:52;;;;;;;3.72;3.42;;;23.50;99.90;;;;;;5000719;28;20088;-81
2023/09/17 12:44:17;;;;;;;3.97;3.25;;;23.50;99.90;;;;;;5008760;28;20014;-81
2023/09/17 12:46:43;;;;;;;5.75;3.05;;;23.50;99.90;;;;;;5000967;28;20030;-82
2023/09/17 12:49:10;;;;;;;3.92;3.30;;;23.50;99.90;;;;;;5009359;28;20725;-81